Time;durP1;ratioP1;P1;durP2;ratioP2;P2;SDS_P1;SDS_P2;PMS_P1;PMS_P2;Temp;Humidity;BMP_temperature;BMP_pressure;BME280_temperature;BME280_humidity;BME280_pressure;Samples;Min_cycle;Max_cycle;Signal;HPM_P1;HPM_P2
2024/01/19 00:00:21;;;;;;;32.67;15.88;;;;;;;;;;5095921;28;20542;-75
2024/01/19 00:02:46;;;;;;;36.28;17.27;;;;;;;;;;5095331;28;20354;-76
2024/01/19 00:05:12;;;;;;;38.50;17.30;;;;;;;;;;5095295;28;20031;-76
2024/01/19 00:07:39;;;;;;;36.35;16.95;;;;;;;;;;5095077;28;20065;-77
2024/01/19 00:10:06;;;;;;;32.80;15.45;;;;;;;;;;5095472;28;20024;-77
2024/01/19 00:12:35;;;;;;;32.60;16.80;;;;;;;;;;5095048;28;20430;-77
2024/01/19 00:15:11;;;;;;;36.42;15.80;;;;;;;;;;5095202;28;20024;-77
2024/01/19 00:17:36;;;;;;;28.75;14.75;;;;;;;;;;5092891;28;20024;-76
2024/01/19 00:20:02;;;;;;;36.58;17.85;;;;;;;;;;5095215;28;20024;-78
2024/01/19 00:22:27;;;;;;;34.08;17.13;;;;;;;;;;5077636;28;20035;-77
2024/01/19 00:24:54;;;;;;;32.83;15.02;;;;;;;;;;5094876;28;20044;-78
2024/01/19 00:27:20;;;;;;;31.92;14.60;;;;;;;;;;5095008;28;20016;-78
2024/01/19 00:29:47;;;;;;;31.25;16.05;;;;;;;;;;5095028;28;20020;-79
2024/01/19 00:32:12;;;;;;;32.33;15.45;;;;;;;;;;5095629;28;20020;-77
2024/01/19 00:34:37;;;;;;;28.10;14.25;;;;;;;;;;5076873;28;20028;-77
2024/01/19 00:37:07;;;;;;;31.23;14.75;;;;;;;;;;5094597;28;20439;-77
2024/01/19 00:39:35;;;;;;;33.25;17.10;;;;;;;;;;5076285;28;20028;-78
2024/01/19 00:42:00;;;;;;;33.40;15.98;;;;;;;;;;5094949;28;20024;-77
2024/01/19 00:44:30;;;;;;;41.72;15.48;;;;;;;;;;5094547;28;20085;-77
2024/01/19 00:46:55;;;;;;;32.75;15.73;;;;;;;;;;5073904;28;20020;-78
2024/01/19 00:49:21;;;;;;;31.02;16.17;;;;;;;;;;5094735;28;20051;-78
2024/01/19 00:51:47;;;;;;;31.55;16.38;;;;;;;;;;5094871;28;20023;-78
2024/01/19 00:54:14;;;;;;;36.90;16.13;;;;;;;;;;5086411;28;20024;-77
2024/01/19 00:56:41;;;;;;;35.35;17.48;;;;;;;;;;5094797;28;20024;-78
2024/01/19 00:59:06;;;;;;;29.52;17.05;;;;;;;;;;5094502;28;20367;-77
2024/01/19 01:01:32;;;;;;;34.85;16.42;;;;;;;;;;5094586;28;20106;-77
2024/01/19 01:04:01;;;;;;;35.63;15.77;;;;;;;;;;5094309;28;20028;-76
2024/01/19 01:06:35;;;;;;;36.42;17.27;;;;;;;;;;5094293;28;20031;-76
2024/01/19 01:09:01;;;;;;;31.05;16.42;;;;;;;;;;5092635;28;20027;-76
2024/01/19 01:11:27;;;;;;;27.90;14.98;;;;;;;;;;5075953;28;20020;-76
2024/01/19 01:14:06;;;;;;;33.20;14.88;;;;;;;;;;5088375;28;20020;-78
2024/01/19 01:16:41;;;;;;;30.55;14.82;;;;;;;;;;5093331;28;20131;-76
2024/01/19 01:19:06;;;;;;;35.70;15.55;;;;;;;;;;5093190;28;20023;-76
2024/01/19 01:21:31;;;;;;;39.95;16.63;;;;;;;;;;5092850;28;20032;-77
2024/01/19 01:23:57;;;;;;;35.75;16.90;;;;;;;;;;5093231;28;20270;-77
2024/01/19 01:26:44;;;;;;;33.85;15.75;;;;;;;;;;5071331;28;20075;-79
2024/01/19 01:29:09;;;;;;;40.00;17.42;;;;;;;;;;5069772;28;20023;-78
2024/01/19 01:31:36;;;;;;;30.35;15.48;;;;;;;;;;5073003;28;20024;-76
2024/01/19 01:34:03;;;;;;;37.70;16.90;;;;;;;;;;5074141;28;20032;-76
2024/01/19 01:36:30;;;;;;;38.50;16.63;;;;;;;;;;5073323;28;20043;-76
2024/01/19 01:39:04;;;;;;;37.47;19.00;;;;;;;;;;5071607;28;20470;-77
2024/01/19 01:41:32;;;;;;;35.45;16.23;;;;;;;;;;5070951;28;20141;-77
2024/01/19 01:44:04;;;;;;;38.05;17.73;;;;;;;;;;5072548;28;20055;-78
2024/01/19 01:46:33;;;;;;;39.28;18.20;;;;;;;;;;5072224;28;20015;-77
2024/01/19 01:48:58;;;;;;;40.92;18.10;;;;;;;;;;5072049;28;20020;-77
2024/01/19 01:51:38;;;;;;;37.45;16.58;;;;;;;;;;5072323;28;20021;-77
2024/01/19 01:54:06;;;;;;;36.33;18.60;;;;;;;;;;5072094;28;20484;-77
2024/01/19 01:56:41;;;;;;;35.30;17.25;;;;;;;;;;5071326;28;20113;-77
2024/01/19 01:59:07;;;;;;;35.60;17.95;;;;;;;;;;5073630;28;20016;-75
2024/01/19 02:01:33;;;;;;;38.05;18.50;;;;;;;;;;5073302;28;20008;-77
2024/01/19 02:04:02;;;;;;;33.80;16.13;;;;;;;;;;5072754;28;20095;-79
2024/01/19 02:06:28;;;;;;;36.05;17.48;;;;;;;;;;5071914;28;20051;-77
2024/01/19 02:08:55;;;;;;;42.25;17.98;;;;;;;;;;5053917;28;20100;-77
2024/01/19 02:11:20;;;;;;;39.20;18.60;;;;;;;;;;5072102;28;20031;-75
2024/01/19 02:13:50;;;;;;;35.33;16.83;;;;;;;;;;5071773;28;20012;-77
2024/01/19 02:16:18;;;;;;;34.42;17.35;;;;;;;;;;5069323;28;20477;-77
2024/01/19 02:18:49;;;;;;;31.27;15.65;;;;;;;;;;5071743;28;20027;-76
2024/01/19 02:21:16;;;;;;;31.13;14.88;;;;;;;;;;5071712;28;20104;-78
2024/01/19 02:23:55;;;;;;;27.60;14.18;;;;;;;;;;5070611;28;20016;-77
2024/01/19 02:26:21;;;;;;;24.60;12.80;;;;;;;;;;5087398;28;20047;-77
2024/01/19 02:28:54;;;;;;;23.90;13.20;;;;;;;;;;5093062;28;20014;-76
2024/01/19 02:31:20;;;;;;;28.85;11.68;;;;;;;;;;5091183;28;20019;-76
2024/01/19 02:33:47;;;;;;;20.27;10.63;;;;;;;;;;5092444;28;20431;-77
2024/01/19 02:36:12;;;;;;;22.50;10.00;;;;;;;;;;5092794;28;20041;-76
2024/01/19 02:38:38;;;;;;;17.77;9.18;;;;;;;;;;5092733;28;20125;-77
2024/01/19 02:41:04;;;;;;;15.25;8.05;;;;;;;;;;5092094;28;20016;-76
2024/01/19 02:43:31;;;;;;;18.95;8.68;;;;;;;;;;5093091;28;20022;-76
2024/01/19 02:45:58;;;;;;;16.27;8.57;;;;;;;;;;5087642;28;20377;-77
2024/01/19 02:48:24;;;;;;;16.83;8.80;;;;;;;;;;5093180;28;20024;-76
2024/01/19 02:50:51;;;;;;;18.45;8.60;;;;;;;;;;5092753;28;20020;-75
2024/01/19 02:53:21;;;;;;;15.52;7.57;;;;;;;;;;5084941;28;20027;-77
2024/01/19 02:55:47;;;;;;;16.60;8.85;;;;;;;;;;5092916;28;20023;-77
2024/01/19 02:58:13;;;;;;;13.32;7.22;;;;;;;;;;5093016;28;20020;-76
2024/01/19 03:00:39;;;;;;;15.68;7.80;;;;;;;;;;5092866;28;20422;-77
2024/01/19 03:03:05;;;;;;;16.25;8.30;;;;;;;;;;5092879;28;20032;-77
2024/01/19 03:05:32;;;;;;;16.35;8.55;;;;;;;;;;5092696;28;20031;-77
2024/01/19 03:08:02;;;;;;;18.50;7.97;;;;;;;;;;5058619;28;20032;-77
2024/01/19 03:10:27;;;;;;;17.95;8.07;;;;;;;;;;5096455;28;20020;-76
2024/01/19 03:12:54;;;;;;;14.77;7.55;;;;;;;;;;5096409;28;20012;-76
2024/01/19 03:15:19;;;;;;;15.82;8.65;;;;;;;;;;5096291;28;20330;-77
2024/01/19 03:17:44;;;;;;;15.05;8.52;;;;;;;;;;5096614;28;20527;-77
2024/01/19 03:20:10;;;;;;;14.13;8.50;;;;;;;;;;5096183;28;20070;-77
2024/01/19 03:22:36;;;;;;;16.02;9.15;;;;;;;;;;5096530;28;20361;-76
2024/01/19 03:25:02;;;;;;;16.40;9.15;;;;;;;;;;5095849;28;20517;-76
2024/01/19 03:27:29;;;;;;;17.83;9.07;;;;;;;;;;5095983;28;20091;-75
2024/01/19 03:29:55;;;;;;;16.65;8.15;;;;;;;;;;5078056;28;20012;-76
2024/01/19 03:32:29;;;;;;;20.63;9.45;;;;;;;;;;5095810;28;20077;-77
2024/01/19 03:34:55;;;;;;;15.82;8.35;;;;;;;;;;5095992;28;20055;-77
2024/01/19 03:37:21;;;;;;;19.83;9.13;;;;;;;;;;5095936;28;20016;-76
2024/01/19 03:39:46;;;;;;;17.52;9.10;;;;;;;;;;5096532;28;20093;-77
2024/01/19 03:42:11;;;;;;;16.25;8.38;;;;;;;;;;5077907;28;20039;-77
2024/01/19 03:44:39;;;;;;;15.57;8.75;;;;;;;;;;5094009;28;20115;-77
2024/01/19 03:47:06;;;;;;;16.35;8.63;;;;;;;;;;5077446;28;20032;-78
2024/01/19 03:49:37;;;;;;;18.77;9.85;;;;;;;;;;5083294;28;20020;-78
2024/01/19 03:52:03;;;;;;;34.00;10.52;;;;;;;;;;5093889;28;20475;-75
2024/01/19 03:54:29;;;;;;;22.75;10.65;;;;;;;;;;5095587;28;20118;-77
2024/01/19 03:56:59;;;;;;;19.67;10.65;;;;;;;;;;5077334;28;20023;-77
2024/01/19 03:59:26;;;;;;;19.13;10.77;;;;;;;;;;5093755;28;20024;-77
2024/01/19 04:01:53;;;;;;;20.73;11.50;;;;;;;;;;5094940;28;20038;-77
2024/01/19 04:04:35;;;;;;;23.13;11.20;;;;;;;;;;5094259;28;20027;-76
2024/01/19 04:07:05;;;;;;;20.42;11.00;;;;;;;;;;5094086;28;20024;-77
2024/01/19 04:09:30;;;;;;;24.10;12.20;;;;;;;;;;5094025;28;20019;-77
2024/01/19 04:12:20;;;;;;;22.33;10.73;;;;;;;;;;5093984;28;20008;-77
2024/01/19 04:14:47;;;;;;;19.52;11.25;;;;;;;;;;5091764;28;20016;-75
2024/01/19 04:17:15;;;;;;;26.17;13.65;;;;;;;;;;5075787;28;20028;-76
2024/01/19 04:19:41;;;;;;;27.20;10.88;;;;;;;;;;5093419;28;20020;-76
2024/01/19 04:22:06;;;;;;;19.38;10.68;;;;;;;;;;5094039;28;20102;-75
2024/01/19 04:24:33;;;;;;;27.83;12.57;;;;;;;;;;5076000;28;20027;-75
2024/01/19 04:26:58;;;;;;;22.17;10.95;;;;;;;;;;5094890;28;20020;-75
2024/01/19 04:29:24;;;;;;;25.98;12.02;;;;;;;;;;5076341;28;20020;-77
2024/01/19 04:31:52;;;;;;;19.85;10.25;;;;;;;;;;5095005;28;20026;-78
2024/01/19 04:34:19;;;;;;;25.52;11.60;;;;;;;;;;5094632;28;20382;-77
2024/01/19 04:36:45;;;;;;;23.27;12.35;;;;;;;;;;5095002;28;20069;-76
2024/01/19 04:39:11;;;;;;;24.83;10.88;;;;;;;;;;5094937;28;20066;-76
2024/01/19 04:41:39;;;;;;;25.15;10.90;;;;;;;;;;5094905;28;20087;-77
2024/01/19 04:44:06;;;;;;;24.63;11.15;;;;;;;;;;5076469;28;20024;-76
2024/01/19 04:46:33;;;;;;;24.27;12.07;;;;;;;;;;5094779;28;20030;-79
2024/01/19 04:48:58;;;;;;;24.73;11.10;;;;;;;;;;5094819;28;20462;-76
2024/01/19 04:51:23;;;;;;;23.85;11.73;;;;;;;;;;5095038;28;20016;-75
2024/01/19 04:53:48;;;;;;;25.08;10.77;;;;;;;;;;5094767;28;20012;-76
2024/01/19 04:56:20;;;;;;;27.10;12.88;;;;;;;;;;5094428;28;20065;-76
2024/01/19 04:58:46;;;;;;;30.23;13.10;;;;;;;;;;5092210;28;20047;-75
2024/01/19 05:01:12;;;;;;;33.22;12.82;;;;;;;;;;5076389;28;20016;-76
2024/01/19 05:03:41;;;;;;;29.65;14.05;;;;;;;;;;5094840;28;20031;-77
2024/01/19 05:06:06;;;;;;;30.80;12.98;;;;;;;;;;5094352;28;20602;-76
2024/01/19 05:08:31;;;;;;;23.38;11.70;;;;;;;;;;5094733;28;20098;-76
2024/01/19 05:10:57;;;;;;;27.08;11.38;;;;;;;;;;5094753;28;20020;-76
2024/01/19 05:13:22;;;;;;;23.65;11.77;;;;;;;;;;5076487;28;20492;-78
2024/01/19 05:15:56;;;;;;;22.50;10.73;;;;;;;;;;5094253;28;20073;-76
2024/01/19 05:18:21;;;;;;;26.05;12.20;;;;;;;;;;5094403;28;20047;-77
2024/01/19 05:20:47;;;;;;;29.42;13.13;;;;;;;;;;5075958;28;20051;-78
2024/01/19 05:23:12;;;;;;;22.90;10.98;;;;;;;;;;5075993;28;20059;-77
2024/01/19 05:25:37;;;;;;;25.80;12.45;;;;;;;;;;5071847;28;20054;-77
2024/01/19 05:28:03;;;;;;;30.10;13.07;;;;;;;;;;5074050;28;20024;-77
2024/01/19 05:30:28;;;;;;;23.17;11.52;;;;;;;;;;5072502;28;20032;-78
2024/01/19 05:32:55;;;;;;;29.77;12.27;;;;;;;;;;5072367;28;20377;-76
2024/01/19 05:35:20;;;;;;;28.10;14.48;;;;;;;;;;5073704;28;20016;-77
2024/01/19 05:37:45;;;;;;;26.58;13.77;;;;;;;;;;5073731;28;20053;-77
2024/01/19 05:40:12;;;;;;;26.65;12.43;;;;;;;;;;5073571;28;20103;-76
2024/01/19 05:42:37;;;;;;;28.35;12.20;;;;;;;;;;5073555;28;20525;-77
2024/01/19 05:45:03;;;;;;;31.52;12.80;;;;;;;;;;5055782;28;20098;-77
2024/01/19 05:47:30;;;;;;;31.85;12.32;;;;;;;;;;5073387;28;20024;-77
2024/01/19 05:49:56;;;;;;;28.52;13.38;;;;;;;;;;5072053;28;20075;-77
2024/01/19 05:52:23;;;;;;;34.70;14.98;;;;;;;;;;5073282;28;20031;-77
2024/01/19 05:54:48;;;;;;;31.98;14.00;;;;;;;;;;5073551;28;20024;-78
2024/01/19 05:57:14;;;;;;;31.85;14.57;;;;;;;;;;5073219;28;20028;-77
2024/01/19 05:59:40;;;;;;;32.42;14.52;;;;;;;;;;5073127;28;20028;-76
2024/01/19 06:02:06;;;;;;;34.40;14.80;;;;;;;;;;5073475;28;20016;-77
2024/01/19 06:04:38;;;;;;;35.15;14.18;;;;;;;;;;5055275;28;20029;-77
2024/01/19 06:07:04;;;;;;;30.98;15.77;;;;;;;;;;5070397;28;20024;-76
2024/01/19 06:09:29;;;;;;;36.30;15.57;;;;;;;;;;5054704;28;20112;-77
2024/01/19 06:11:55;;;;;;;33.60;17.67;;;;;;;;;;5071891;28;20382;-76
2024/01/19 06:14:20;;;;;;;27.70;13.65;;;;;;;;;;5071719;28;20021;-77
2024/01/19 06:16:46;;;;;;;29.58;13.48;;;;;;;;;;5072980;28;20103;-77
2024/01/19 06:19:12;;;;;;;31.88;13.45;;;;;;;;;;5072840;28;20028;-76
2024/01/19 06:21:42;;;;;;;30.95;14.60;;;;;;;;;;5072792;28;20415;-76
2024/01/19 06:24:08;;;;;;;33.20;13.35;;;;;;;;;;5072860;28;20032;-77
2024/01/19 06:26:35;;;;;;;36.22;14.15;;;;;;;;;;5091216;28;20048;-75
2024/01/19 06:29:01;;;;;;;30.63;14.27;;;;;;;;;;5092940;28;20377;-77
2024/01/19 06:31:27;;;;;;;33.05;14.38;;;;;;;;;;5093205;28;20012;-78
2024/01/19 06:33:53;;;;;;;28.48;12.73;;;;;;;;;;5093393;28;20020;-77
2024/01/19 06:36:21;;;;;;;30.10;13.57;;;;;;;;;;5092499;28;20043;-77
2024/01/19 06:38:47;;;;;;;29.75;13.57;;;;;;;;;;5087602;28;20012;-78
2024/01/19 06:41:12;;;;;;;31.08;12.63;;;;;;;;;;5092768;28;20066;-76
2024/01/19 06:43:38;;;;;;;28.50;13.15;;;;;;;;;;5076273;28;20027;-77
2024/01/19 06:46:05;;;;;;;25.50;12.95;;;;;;;;;;5097159;28;20033;-76
2024/01/19 06:48:32;;;;;;;24.90;12.73;;;;;;;;;;5096790;28;20372;-74
2024/01/19 06:50:58;;;;;;;32.58;13.77;;;;;;;;;;5078170;28;20408;-77
2024/01/19 06:53:25;;;;;;;27.98;12.40;;;;;;;;;;5096711;28;20012;-74
2024/01/19 06:55:51;;;;;;;30.80;12.73;;;;;;;;;;5096591;28;20012;-75
2024/01/19 06:58:17;;;;;;;31.88;13.00;;;;;;;;;;5096757;28;20023;-74
2024/01/19 07:00:43;;;;;;;28.10;11.93;;;;;;;;;;5097560;28;20361;-83
2024/01/19 07:03:08;;;;;;;30.33;15.27;;;;;;;;;;5079676;28;20031;-85
2024/01/19 07:05:34;;;;;;;32.78;12.82;;;;;;;;;;5098341;28;20027;-83
2024/01/19 07:07:59;;;;;;;33.40;14.02;;;;;;;;;;5098452;28;20023;-81
2024/01/19 07:10:24;;;;;;;30.55;13.43;;;;;;;;;;5097292;28;20350;-81
2024/01/19 07:12:51;;;;;;;29.35;14.18;;;;;;;;;;5097541;28;20027;-83
2024/01/19 07:15:17;;;;;;;33.28;15.32;;;;;;;;;;5078578;28;20156;-80
2024/01/19 07:17:43;;;;;;;35.10;14.57;;;;;;;;;;5097061;28;20052;-79
2024/01/19 07:20:08;;;;;;;37.58;15.55;;;;;;;;;;5097634;28;20376;-78
2024/01/19 07:22:35;;;;;;;29.08;14.82;;;;;;;;;;5098888;28;20128;-76
2024/01/19 07:25:04;;;;;;;30.33;14.93;;;;;;;;;;5099892;28;20052;-79
2024/01/19 07:27:37;;;;;;;34.33;14.43;;;;;;;;;;5092995;28;20026;-79
2024/01/19 07:30:05;;;;;;;33.75;15.80;;;;;;;;;;5097806;28;20032;-81
2024/01/19 07:32:32;;;;;;;31.35;14.60;;;;;;;;;;5079940;28;20028;-78
2024/01/19 07:34:58;;;;;;;39.53;16.08;;;;;;;;;;5097745;28;20533;-80
2024/01/19 07:37:23;;;;;;;35.85;16.05;;;;;;;;;;5079191;28;20032;-79
2024/01/19 07:39:49;;;;;;;36.78;16.90;;;;;;;;;;5087978;28;20380;-78
2024/01/19 07:42:16;;;;;;;30.27;14.23;;;;;;;;;;5098118;28;20032;-80
2024/01/19 07:44:42;;;;;;;29.58;14.82;;;;;;;;;;5079132;28;20028;-80
2024/01/19 07:47:07;;;;;;;30.52;14.15;;;;;;;;;;5077945;28;20411;-79
2024/01/19 07:49:34;;;;;;;38.67;14.55;;;;;;;;;;5079519;28;20024;-79
2024/01/19 07:51:59;;;;;;;46.85;14.93;;;;;;;;;;5096828;28;20012;-78
2024/01/19 07:54:26;;;;;;;47.47;14.32;;;;;;;;;;5095987;28;20381;-81
2024/01/19 07:56:52;;;;;;;40.53;13.57;;;;;;;;;;5093163;28;20031;-80
2024/01/19 07:59:19;;;;;;;34.08;15.10;;;;;;;;;;5077981;28;20552;-82
2024/01/19 08:01:46;;;;;;;54.85;16.02;;;;;;;;;;5077039;28;20028;-78
2024/01/19 08:04:13;;;;;;;26.42;12.18;;;;;;;;;;5088012;28;20020;-79
2024/01/19 08:06:40;;;;;;;34.67;14.32;;;;;;;;;;5095839;28;20035;-79
2024/01/19 08:09:08;;;;;;;36.85;15.18;;;;;;;;;;5095969;28;20461;-79
2024/01/19 08:11:34;;;;;;;39.80;15.35;;;;;;;;;;5095906;28;20473;-79
2024/01/19 08:14:00;;;;;;;36.78;15.63;;;;;;;;;;5095479;28;20055;-79
2024/01/19 08:16:25;;;;;;;38.90;17.00;;;;;;;;;;5076890;28;20050;-79
2024/01/19 08:18:52;;;;;;;44.10;19.45;;;;;;;;;;5095980;28;20023;-80
2024/01/19 08:21:21;;;;;;;53.95;21.17;;;;;;;;;;5095766;28;20438;-80
2024/01/19 08:23:48;;;;;;;38.60;16.83;;;;;;;;;;5095348;28;20016;-79
2024/01/19 08:26:14;;;;;;;42.75;18.75;;;;;;;;;;5078328;28;20409;-80
2024/01/19 08:28:45;;;;;;;44.20;14.80;;;;;;;;;;5096419;28;20035;-81
2024/01/19 08:31:13;;;;;;;32.95;14.43;;;;;;;;;;5077880;28;20024;-80
2024/01/19 08:33:40;;;;;;;39.90;15.98;;;;;;;;;;5094655;28;20418;-82
2024/01/19 08:36:07;;;;;;;54.60;16.23;;;;;;;;;;5098206;28;20012;-84
2024/01/19 08:38:33;;;;;;;41.30;14.85;;;;;;;;;;5096043;28;20027;-83
2024/01/19 08:41:00;;;;;;;33.03;14.77;;;;;;;;;;5096057;28;20020;-82
2024/01/19 08:43:26;;;;;;;36.47;14.82;;;;;;;;;;5095340;28;20027;-82
2024/01/19 08:45:53;;;;;;;34.80;13.40;;;;;;;;;;5076600;28;20012;-81
2024/01/19 08:48:35;;;;;;;30.27;13.75;;;;;;;;;;5094473;28;20024;-80
2024/01/19 08:51:02;;;;;;;34.80;13.38;;;;;;;;;;5090728;28;20032;-80
2024/01/19 08:53:28;;;;;;;32.28;15.45;;;;;;;;;;5090528;28;20042;-79
2024/01/19 08:55:53;;;;;;;28.98;12.77;;;;;;;;;;5072531;28;20023;-80
2024/01/19 08:58:19;;;;;;;27.02;11.93;;;;;;;;;;5072923;28;20020;-80
2024/01/19 09:00:44;;;;;;;29.13;12.52;;;;;;;;;;5091368;28;20030;-80
2024/01/19 09:03:09;;;;;;;28.42;12.23;;;;;;;;;;5091716;28;20135;-81
2024/01/19 09:05:35;;;;;;;25.73;11.90;;;;;;;;;;5091889;28;20346;-80
2024/01/19 09:08:00;;;;;;;32.47;12.00;;;;;;;;;;5075139;28;20461;-81
2024/01/19 09:10:26;;;;;;;26.83;11.57;;;;;;;;;;5093778;28;20369;-82
2024/01/19 09:12:51;;;;;;;22.38;12.18;;;;;;;;;;5093882;28;20031;-81
2024/01/19 09:15:16;;;;;;;26.42;12.20;;;;;;;;;;5094338;28;20027;-81
2024/01/19 09:17:42;;;;;;;24.80;11.50;;;;;;;;;;5094533;28;20024;-81
2024/01/19 09:20:07;;;;;;;28.10;12.73;;;;;;;;;;5094575;28;20098;-82
2024/01/19 09:22:33;;;;;;;21.25;12.18;;;;;;;;;;5094321;28;20590;-79
2024/01/19 09:24:58;;;;;;;27.35;11.25;;;;;;;;;;5093909;28;20105;-80
2024/01/19 09:27:23;;;;;;;21.92;12.02;;;;;;;;;;5093834;28;20028;-80
2024/01/19 09:29:48;;;;;;;25.95;12.52;;;;;;;;;;5094118;28;20016;-80
2024/01/19 09:32:16;;;;;;;28.33;10.38;;;;;;;;;;5094554;28;20048;-81
2024/01/19 09:34:42;;;;;;;22.83;10.30;;;;;;;;;;5075812;28;20042;-80
2024/01/19 09:37:07;;;;;;;17.02;9.30;;;;;;;;;;5094287;28;20020;-79
2024/01/19 09:39:32;;;;;;;26.75;9.63;;;;;;;;;;5075794;28;20477;-79
2024/01/19 09:42:03;;;;;;;19.25;8.77;;;;;;;;;;5093861;28;20031;-80
2024/01/19 09:44:32;;;;;;;23.15;9.52;;;;;;;;;;5075783;28;20012;-80
2024/01/19 09:47:16;;;;;;;23.27;8.15;;;;;;;;;;5093669;28;20016;-79
2024/01/19 09:50:01;;;;;;;32.15;9.80;;;;;;;;;;5075610;28;20023;-79
2024/01/19 09:52:39;;;;;;;21.92;8.48;;;;;;;;;;5093649;28;20012;-82
2024/01/19 09:55:04;;;;;;;24.25;8.90;;;;;;;;;;5075738;28;20013;-80
2024/01/19 09:57:30;;;;;;;25.50;9.63;;;;;;;;;;5094111;28;20027;-81
2024/01/19 09:59:55;;;;;;;20.33;8.68;;;;;;;;;;5093990;28;20019;-81
2024/01/19 10:02:22;;;;;;;26.38;10.05;;;;;;;;;;5075826;28;20106;-80
2024/01/19 10:04:48;;;;;;;29.02;10.63;;;;;;;;;;5075732;28;20020;-81
2024/01/19 10:07:13;;;;;;;23.27;10.60;;;;;;;;;;5093807;28;20093;-81
2024/01/19 10:09:40;;;;;;;26.35;10.10;;;;;;;;;;5094146;28;20020;-79
2024/01/19 10:12:06;;;;;;;23.73;10.52;;;;;;;;;;5076555;28;20016;-81
2024/01/19 10:14:32;;;;;;;21.00;9.25;;;;;;;;;;5094414;28;20008;-82
2024/01/19 10:16:57;;;;;;;22.10;10.45;;;;;;;;;;5093849;28;20373;-82
2024/01/19 10:19:24;;;;;;;24.23;9.43;;;;;;;;;;5078624;28;20040;-82
2024/01/19 10:21:52;;;;;;;22.23;9.43;;;;;;;;;;5098316;28;20106;-82
2024/01/19 10:24:19;;;;;;;22.75;8.98;;;;;;;;;;5098171;28;20100;-80
2024/01/19 10:26:47;;;;;;;25.90;10.02;;;;;;;;;;5097571;28;20047;-81
2024/01/19 10:29:14;;;;;;;20.08;8.65;;;;;;;;;;5097819;28;20022;-80
2024/01/19 10:31:44;;;;;;;21.08;8.82;;;;;;;;;;5097833;28;20020;-81
2024/01/19 10:34:20;;;;;;;23.83;8.20;;;;;;;;;;5079483;28;20389;-82
2024/01/19 10:36:45;;;;;;;15.38;8.02;;;;;;;;;;5097991;28;20349;-81
2024/01/19 10:39:23;;;;;;;19.58;8.20;;;;;;;;;;5097652;28;20521;-82
2024/01/19 10:41:50;;;;;;;18.92;9.13;;;;;;;;;;5097538;28;20031;-82
2024/01/19 10:44:17;;;;;;;23.48;8.05;;;;;;;;;;5097220;28;20016;-81
2024/01/19 10:46:42;;;;;;;17.00;7.07;;;;;;;;;;5097592;28;20024;-82
2024/01/19 10:49:08;;;;;;;19.60;7.50;;;;;;;;;;5097463;28;20031;-81
2024/01/19 10:51:42;;;;;;;14.05;7.10;;;;;;;;;;5097218;28;20016;-81
2024/01/19 10:54:10;;;;;;;16.50;7.50;;;;;;;;;;5097348;28;20099;-80
2024/01/19 10:56:36;;;;;;;18.13;7.40;;;;;;;;;;5097196;28;20465;-81
2024/01/19 10:59:11;;;;;;;18.70;6.95;;;;;;;;;;5097151;28;20500;-81
2024/01/19 11:01:37;;;;;;;19.00;7.70;;;;;;;;;;5097228;28;20096;-80
2024/01/19 11:04:03;;;;;;;16.95;6.43;;;;;;;;;;5097356;28;20043;-81
2024/01/19 11:06:28;;;;;;;18.80;5.85;;;;;;;;;;5096893;28;20027;-82
2024/01/19 11:08:54;;;;;;;14.32;5.10;;;;;;;;;;5096930;28;20023;-82
2024/01/19 11:11:20;;;;;;;11.68;5.38;;;;;;;;;;5096679;28;20434;-82
2024/01/19 11:13:46;;;;;;;13.25;4.40;;;;;;;;;;5096682;28;20016;-82
2024/01/19 11:16:13;;;;;;;16.10;4.22;;;;;;;;;;5096903;28;20043;-81
2024/01/19 11:18:38;;;;;;;11.45;4.55;;;;;;;;;;5096871;28;20073;-82
2024/01/19 11:21:04;;;;;;;12.93;4.38;;;;;;;;;;5097029;28;20023;-83
2024/01/19 11:23:30;;;;;;;8.50;4.45;;;;;;;;;;5078517;28;20108;-82
2024/01/19 11:26:07;;;;;;;12.00;4.60;;;;;;;;;;5096120;28;20040;-81
2024/01/19 11:28:44;;;;;;;14.85;4.78;;;;;;;;;;5078324;28;20016;-82
2024/01/19 11:31:17;;;;;;;8.23;3.83;;;;;;;;;;5079235;28;20124;-82
2024/01/19 11:33:42;;;;;;;14.10;5.38;;;;;;;;;;5078882;28;20016;-80
2024/01/19 11:36:08;;;;;;;14.15;4.05;;;;;;;;;;5097278;28;20020;-82
2024/01/19 11:38:36;;;;;;;11.70;3.35;;;;;;;;;;5078370;28;20468;-82
2024/01/19 11:41:02;;;;;;;13.32;4.30;;;;;;;;;;5097114;28;20465;-81
2024/01/19 11:43:40;;;;;;;10.40;3.90;;;;;;;;;;5078928;28;20073;-81
2024/01/19 11:46:09;;;;;;;12.23;4.10;;;;;;;;;;5096999;28;20023;-80
2024/01/19 11:48:44;;;;;;;17.67;5.28;;;;;;;;;;5096594;28;20024;-80
2024/01/19 11:51:31;;;;;;;13.05;4.80;;;;;;;;;;5096229;28;20038;-81
2024/01/19 11:53:58;;;;;;;9.93;4.50;;;;;;;;;;5077870;28;20392;-82
2024/01/19 11:56:24;;;;;;;9.13;4.80;;;;;;;;;;5077682;28;20465;-80
2024/01/19 11:58:49;;;;;;;13.35;4.65;;;;;;;;;;5096514;28;20070;-81
2024/01/19 12:01:15;;;;;;;15.18;4.80;;;;;;;;;;5095898;28;20012;-81
2024/01/19 12:03:41;;;;;;;21.48;5.40;;;;;;;;;;5095713;28;20024;-80
2024/01/19 12:06:07;;;;;;;11.05;5.38;;;;;;;;;;5096001;28;20132;-80
2024/01/19 12:08:32;;;;;;;13.05;4.60;;;;;;;;;;5077504;28;20053;-80
2024/01/19 12:11:02;;;;;;;12.77;4.68;;;;;;;;;;5078935;28;20073;-81
2024/01/19 12:13:28;;;;;;;12.75;4.75;;;;;;;;;;5079326;28;20031;-82
2024/01/19 12:15:54;;;;;;;11.18;4.35;;;;;;;;;;5078091;28;20422;-81
2024/01/19 12:18:20;;;;;;;13.40;5.75;;;;;;;;;;5077763;28;20123;-82
2024/01/19 12:20:46;;;;;;;12.45;5.07;;;;;;;;;;5077464;28;20059;-82
2024/01/19 12:23:13;;;;;;;17.20;5.60;;;;;;;;;;5095888;28;20023;-80
2024/01/19 12:25:38;;;;;;;16.52;5.43;;;;;;;;;;5095428;28;20055;-80
2024/01/19 12:28:04;;;;;;;11.52;4.55;;;;;;;;;;5077087;28;20024;-82
2024/01/19 12:30:39;;;;;;;14.27;4.75;;;;;;;;;;5096741;28;20035;-81
2024/01/19 12:33:18;;;;;;;11.23;4.13;;;;;;;;;;5099006;28;20019;-83
2024/01/19 12:35:45;;;;;;;21.13;4.72;;;;;;;;;;5098885;28;20020;-81
2024/01/19 12:38:10;;;;;;;10.73;4.20;;;;;;;;;;5077394;28;20525;-82
2024/01/19 12:40:38;;;;;;;10.00;3.70;;;;;;;;;;5094646;28;20016;-82
2024/01/19 12:43:04;;;;;;;13.63;4.07;;;;;;;;;;5095201;28;20035;-81
2024/01/19 12:45:29;;;;;;;6.22;3.13;;;;;;;;;;5077110;28;20028;-82
2024/01/19 12:47:54;;;;;;;9.07;3.40;;;;;;;;;;5076735;28;20431;-80
2024/01/19 12:50:20;;;;;;;8.80;3.75;;;;;;;;;;5095445;28;20046;-83
2024/01/19 12:52:45;;;;;;;12.82;4.45;;;;;;;;;;5095453;28;20012;-81
2024/01/19 12:55:11;;;;;;;6.80;3.38;;;;;;;;;;5077755;28;20019;-81
2024/01/19 12:57:37;;;;;;;7.65;3.58;;;;;;;;;;5096162;28;20076;-81
2024/01/19 13:00:14;;;;;;;8.05;3.60;;;;;;;;;;5096120;28;20050;-82
2024/01/19 13:02:40;;;;;;;10.40;3.88;;;;;;;;;;5095196;28;20468;-82
2024/01/19 13:05:06;;;;;;;11.35;4.20;;;;;;;;;;5095067;28;20027;-81
2024/01/19 13:07:32;;;;;;;8.63;3.63;;;;;;;;;;5076992;28;20054;-81
2024/01/19 13:10:01;;;;;;;10.32;3.65;;;;;;;;;;5094480;28;20019;-80
2024/01/19 13:12:27;;;;;;;6.15;3.08;;;;;;;;;;5094797;28;20024;-82
2024/01/19 13:14:52;;;;;;;11.10;4.18;;;;;;;;;;5094932;28;20012;-81
2024/01/19 13:17:24;;;;;;;13.07;3.35;;;;;;;;;;5094640;28;20024;-81
2024/01/19 13:19:49;;;;;;;11.48;3.47;;;;;;;;;;5094991;28;20038;-80
2024/01/19 13:22:15;;;;;;;11.45;4.05;;;;;;;;;;5095129;28;20019;-82
2024/01/19 13:24:40;;;;;;;8.82;3.97;;;;;;;;;;5094002;28;20020;-80
2024/01/19 13:27:06;;;;;;;13.70;3.75;;;;;;;;;;5094279;28;20342;-81
2024/01/19 13:29:31;;;;;;;12.18;4.35;;;;;;;;;;5094409;28;20373;-81
2024/01/19 13:31:58;;;;;;;11.70;3.88;;;;;;;;;;5094349;28;20055;-81
2024/01/19 13:34:27;;;;;;;12.20;4.72;;;;;;;;;;5094081;28;20028;-81
2024/01/19 13:36:52;;;;;;;10.20;4.22;;;;;;;;;;5094047;28;20027;-81
2024/01/19 13:39:17;;;;;;;8.63;3.95;;;;;;;;;;5093936;28;20427;-81
2024/01/19 13:41:43;;;;;;;7.75;4.38;;;;;;;;;;5093981;28;20024;-82
2024/01/19 13:44:08;;;;;;;7.88;4.40;;;;;;;;;;5094325;28;20070;-81
2024/01/19 13:46:33;;;;;;;8.57;4.45;;;;;;;;;;5093964;28;20024;-81
2024/01/19 13:48:59;;;;;;;12.20;4.40;;;;;;;;;;5075787;28;20020;-81
2024/01/19 13:51:25;;;;;;;7.93;3.95;;;;;;;;;;5093947;28;20077;-80
2024/01/19 13:53:50;;;;;;;7.68;3.67;;;;;;;;;;5093619;28;20024;-82
2024/01/19 13:56:16;;;;;;;9.70;4.50;;;;;;;;;;5093664;28;20012;-80
2024/01/19 13:58:41;;;;;;;10.98;4.20;;;;;;;;;;5094081;28;20020;-81
2024/01/19 14:01:06;;;;;;;15.70;4.10;;;;;;;;;;5093981;28;20046;-81
2024/01/19 14:03:32;;;;;;;9.48;4.05;;;;;;;;;;5075690;28;20435;-81
2024/01/19 14:05:57;;;;;;;9.27;3.72;;;;;;;;;;5093587;28;20020;-82
2024/01/19 14:08:23;;;;;;;9.88;4.15;;;;;;;;;;5075338;28;20093;-80
2024/01/19 14:10:49;;;;;;;8.27;3.88;;;;;;;;;;5093723;28;20013;-81
2024/01/19 14:13:15;;;;;;;8.38;3.65;;;;;;;;;;5075862;28;20435;-80
2024/01/19 14:15:40;;;;;;;7.93;3.83;;;;;;;;;;5093686;28;20020;-81
2024/01/19 14:18:06;;;;;;;10.73;4.85;;;;;;;;;;5078451;28;20066;-80
2024/01/19 14:20:31;;;;;;;14.50;4.88;;;;;;;;;;5106222;28;20449;-81
2024/01/19 14:22:56;;;;;;;9.60;3.92;;;;;;;;;;5098506;28;20472;-82